Time;durP1;ratioP1;P1;durP2;ratioP2;P2;SDS_P1;SDS_P2;PMS_P1;PMS_P2;Temp;Humidity;BMP_temperature;BMP_pressure;BME280_temperature;BME280_humidity;BME280_pressure;Samples;Min_cycle;Max_cycle;Signal;HPM_P1;HPM_P2
2023/07/29 00:02:14;;;;;;;7.57;4.97;;;;;;;;;;5073741;28;20203;-39
2023/07/29 00:04:41;;;;;;;7.82;5.18;;;;;;;;;;5073795;28;20203;-38
2023/07/29 00:07:09;;;;;;;8.32;4.80;;;;;;;;;;5073426;28;20682;-38
2023/07/29 00:09:36;;;;;;;9.02;5.65;;;;;;;;;;5073850;28;20218;-39
2023/07/29 00:12:03;;;;;;;8.13;5.30;;;;;;;;;;5055054;28;20195;-39
2023/07/29 00:14:30;;;;;;;11.45;5.03;;;;;;;;;;5073578;28;20215;-39
2023/07/29 00:16:58;;;;;;;13.02;5.60;;;;;;;;;;5073659;28;20293;-39
2023/07/29 00:19:25;;;;;;;12.93;5.45;;;;;;;;;;5072597;28;20252;-38
2023/07/29 00:21:52;;;;;;;6.72;5.25;;;;;;;;;;5072170;28;20260;-39
2023/07/29 00:24:19;;;;;;;7.47;5.38;;;;;;;;;;5073520;28;20205;-40
2023/07/29 00:26:46;;;;;;;6.00;4.70;;;;;;;;;;5073796;28;20211;-39
2023/07/29 00:29:13;;;;;;;6.32;5.43;;;;;;;;;;5072337;28;20203;-39
2023/07/29 00:31:40;;;;;;;9.45;5.15;;;;;;;;;;5073554;28;20258;-38
2023/07/29 00:34:07;;;;;;;7.45;5.20;;;;;;;;;;5071973;28;20223;-39
2023/07/29 00:36:35;;;;;;;7.35;5.70;;;;;;;;;;5071901;28;20600;-39
2023/07/29 00:39:03;;;;;;;7.35;5.13;;;;;;;;;;5073174;28;20199;-39
2023/07/29 00:41:30;;;;;;;10.15;5.22;;;;;;;;;;5071985;28;20207;-39
2023/07/29 00:43:58;;;;;;;6.45;4.80;;;;;;;;;;5072180;28;20229;-39
2023/07/29 00:46:28;;;;;;;13.48;5.63;;;;;;;;;;5073411;28;20257;-39
2023/07/29 00:48:56;;;;;;;7.15;5.25;;;;;;;;;;5073120;28;20209;-39
2023/07/29 00:51:24;;;;;;;7.90;5.38;;;;;;;;;;5071868;28;20729;-39
2023/07/29 00:53:51;;;;;;;7.40;5.00;;;;;;;;;;5071891;28;20219;-39
2023/07/29 00:56:18;;;;;;;6.55;4.70;;;;;;;;;;5071945;28;20211;-39
2023/07/29 00:58:46;;;;;;;7.50;5.28;;;;;;;;;;5073184;28;20195;-39
2023/07/29 01:01:13;;;;;;;15.23;5.40;;;;;;;;;;5073203;28;20309;-39
2023/07/29 01:03:40;;;;;;;10.23;4.93;;;;;;;;;;5071793;28;20208;-39
2023/07/29 01:06:40;;;;;;;14.32;6.05;;;;;;;;;;5071741;28;20211;-39
2023/07/29 01:09:38;;;;;;;9.10;5.55;;;;;;;;;;5071822;28;20207;-39
2023/07/29 01:12:12;;;;;;;8.88;5.53;;;;;;;;;;5072872;28;20210;-39
2023/07/29 01:14:46;;;;;;;10.43;5.25;;;;;;;;;;5071986;28;20216;-39
2023/07/29 01:17:17;;;;;;;12.02;5.53;;;;;;;;;;5073200;28;20250;-39
2023/07/29 01:20:06;;;;;;;8.98;5.47;;;;;;;;;;5073014;28;20290;-39
2023/07/29 01:22:34;;;;;;;6.55;5.35;;;;;;;;;;5071874;28;20206;-39
2023/07/29 01:25:03;;;;;;;6.75;5.30;;;;;;;;;;5071578;28;20208;-39
2023/07/29 01:27:30;;;;;;;10.38;5.70;;;;;;;;;;5072971;28;20203;-39
2023/07/29 01:29:59;;;;;;;12.82;5.80;;;;;;;;;;5071857;28;20752;-39
2023/07/29 01:32:38;;;;;;;7.65;5.28;;;;;;;;;;5058720;28;20657;-39
2023/07/29 01:35:20;;;;;;;11.80;5.40;;;;;;;;;;5025364;28;20229;-39
2023/07/29 01:37:51;;;;;;;7.55;5.85;;;;;;;;;;5075178;28;20598;-39
2023/07/29 01:40:19;;;;;;;8.45;5.47;;;;;;;;;;5075240;28;20298;-39
2023/07/29 01:42:46;;;;;;;8.90;5.50;;;;;;;;;;5058552;28;20570;-40
2023/07/29 01:45:13;;;;;;;7.95;4.97;;;;;;;;;;5075088;28;20214;-39
2023/07/29 01:47:41;;;;;;;9.57;6.28;;;;;;;;;;5076415;28;20203;-39
2023/07/29 01:50:09;;;;;;;9.07;5.88;;;;;;;;;;5076327;28;20211;-39
2023/07/29 01:52:36;;;;;;;15.70;6.45;;;;;;;;;;5075124;28;20203;-39
2023/07/29 01:55:03;;;;;;;8.77;5.95;;;;;;;;;;5075954;28;20230;-39
2023/07/29 01:57:31;;;;;;;10.45;6.50;;;;;;;;;;5075977;28;20199;-39
2023/07/29 01:59:58;;;;;;;10.88;6.38;;;;;;;;;;5074621;28;20203;-40
2023/07/29 02:02:25;;;;;;;10.88;6.20;;;;;;;;;;5074846;28;20208;-39
2023/07/29 02:04:52;;;;;;;9.90;6.70;;;;;;;;;;5074692;28;20213;-39
2023/07/29 02:07:19;;;;;;;10.05;6.50;;;;;;;;;;5074641;28;20200;-39
2023/07/29 02:09:46;;;;;;;10.70;6.75;;;;;;;;;;5074462;28;20203;-39
2023/07/29 02:12:14;;;;;;;23.13;7.15;;;;;;;;;;5074421;28;20208;-39
2023/07/29 02:14:41;;;;;;;9.77;5.80;;;;;;;;;;5075249;28;20223;-40
2023/07/29 02:17:08;;;;;;;13.23;6.90;;;;;;;;;;5073927;28;20250;-39
2023/07/29 02:19:36;;;;;;;17.52;6.90;;;;;;;;;;5075433;28;20199;-39
2023/07/29 02:22:03;;;;;;;8.57;6.85;;;;;;;;;;5074273;28;20249;-40
2023/07/29 02:24:30;;;;;;;9.25;6.10;;;;;;;;;;5074087;28;20636;-39
2023/07/29 02:26:57;;;;;;;9.32;6.13;;;;;;;;;;5073897;28;20937;-39
2023/07/29 02:29:25;;;;;;;8.02;5.65;;;;;;;;;;5075405;28;20199;-39
2023/07/29 02:31:52;;;;;;;9.80;5.53;;;;;;;;;;5074897;28;20683;-39
2023/07/29 02:34:19;;;;;;;8.48;5.55;;;;;;;;;;5074009;28;20211;-39
2023/07/29 02:36:46;;;;;;;7.28;5.57;;;;;;;;;;5073834;28;20203;-40
2023/07/29 02:39:13;;;;;;;6.28;5.47;;;;;;;;;;5073719;28;20253;-39
2023/07/29 02:41:41;;;;;;;9.52;5.72;;;;;;;;;;5072749;28;20257;-39
2023/07/29 02:44:08;;;;;;;9.55;6.22;;;;;;;;;;5074825;28;20203;-39
2023/07/29 02:46:35;;;;;;;8.63;5.65;;;;;;;;;;5074982;28;20230;-39
2023/07/29 02:49:03;;;;;;;12.30;5.82;;;;;;;;;;5073819;28;20199;-39
2023/07/29 02:51:31;;;;;;;9.07;5.15;;;;;;;;;;5073585;28;20238;-39
2023/07/29 02:53:58;;;;;;;6.63;4.82;;;;;;;;;;5074569;28;20211;-39
2023/07/29 02:56:25;;;;;;;8.27;5.80;;;;;;;;;;5107313;28;20253;-39
2023/07/29 02:58:52;;;;;;;7.63;5.95;;;;;;;;;;5074729;28;20222;-39
2023/07/29 03:01:20;;;;;;;8.05;5.25;;;;;;;;;;5073491;28;20199;-39
2023/07/29 03:03:47;;;;;;;11.07;5.60;;;;;;;;;;5074518;28;20200;-39
2023/07/29 03:06:15;;;;;;;7.32;5.50;;;;;;;;;;5073216;28;20211;-39
2023/07/29 03:08:42;;;;;;;10.15;5.80;;;;;;;;;;5073317;28;20202;-39
2023/07/29 03:11:13;;;;;;;8.13;5.70;;;;;;;;;;5074403;28;20618;-39
2023/07/29 03:13:40;;;;;;;8.02;5.80;;;;;;;;;;5073004;28;20199;-39
2023/07/29 03:16:09;;;;;;;6.93;5.55;;;;;;;;;;5074187;28;20231;-39
2023/07/29 03:18:38;;;;;;;6.95;5.05;;;;;;;;;;5073162;28;20184;-39
2023/07/29 03:21:06;;;;;;;11.05;5.07;;;;;;;;;;5074197;28;20202;-39
2023/07/29 03:23:33;;;;;;;8.88;6.15;;;;;;;;;;5074532;28;20203;-39
2023/07/29 03:26:04;;;;;;;15.38;5.60;;;;;;;;;;5072953;28;20604;-39
2023/07/29 03:28:33;;;;;;;7.70;6.05;;;;;;;;;;5056894;28;20199;-39
2023/07/29 03:31:00;;;;;;;9.02;5.72;;;;;;;;;;5074135;28;20207;-39
2023/07/29 03:33:29;;;;;;;7.00;5.32;;;;;;;;;;5072951;28;20297;-39
2023/07/29 03:35:57;;;;;;;11.82;6.10;;;;;;;;;;5072966;28;20246;-39
2023/07/29 03:38:24;;;;;;;10.38;5.40;;;;;;;;;;5072778;28;20253;-40
2023/07/29 03:40:51;;;;;;;6.70;5.47;;;;;;;;;;5074142;28;20211;-39
2023/07/29 03:43:18;;;;;;;8.10;5.50;;;;;;;;;;5055830;28;20214;-39
2023/07/29 03:45:45;;;;;;;6.10;5.20;;;;;;;;;;5072981;28;20203;-39
2023/07/29 03:48:13;;;;;;;6.97;5.43;;;;;;;;;;5072826;28;20203;-39
2023/07/29 03:50:40;;;;;;;10.70;5.40;;;;;;;;;;5072553;28;20199;-39
2023/07/29 03:53:09;;;;;;;9.82;5.85;;;;;;;;;;5073885;28;20201;-39
2023/07/29 03:55:36;;;;;;;7.78;5.88;;;;;;;;;;5055308;28;20277;-39
2023/07/29 03:58:03;;;;;;;11.20;5.53;;;;;;;;;;5072585;28;20207;-39
2023/07/29 04:00:30;;;;;;;10.73;5.60;;;;;;;;;;5073702;28;20195;-39
2023/07/29 04:02:57;;;;;;;6.10;4.90;;;;;;;;;;5072406;28;20298;-39
2023/07/29 04:05:25;;;;;;;9.68;5.63;;;;;;;;;;5072350;28;20237;-39
2023/07/29 04:07:53;;;;;;;8.65;5.35;;;;;;;;;;5073511;28;20686;-39
2023/07/29 04:10:21;;;;;;;7.03;5.90;;;;;;;;;;5056116;28;20203;-39
2023/07/29 04:12:48;;;;;;;15.18;6.28;;;;;;;;;;5072411;28;20199;-39
2023/07/29 04:15:15;;;;;;;7.90;6.45;;;;;;;;;;5072120;28;20231;-39
2023/07/29 04:17:42;;;;;;;9.63;6.15;;;;;;;;;;5072300;28;20296;-39
2023/07/29 04:20:10;;;;;;;8.52;6.82;;;;;;;;;;5072341;28;20211;-39
2023/07/29 04:22:37;;;;;;;9.50;6.25;;;;;;;;;;5073631;28;20211;-39
2023/07/29 04:25:05;;;;;;;6.68;5.32;;;;;;;;;;5073369;28;20660;-39
2023/07/29 04:27:32;;;;;;;8.75;6.50;;;;;;;;;;5072279;28;20291;-39
2023/07/29 04:29:59;;;;;;;10.52;6.70;;;;;;;;;;5073170;28;20684;-39
2023/07/29 04:32:26;;;;;;;8.20;5.95;;;;;;;;;;5072376;28;20207;-39
2023/07/29 04:34:54;;;;;;;8.95;6.35;;;;;;;;;;5073445;28;20644;-39
2023/07/29 04:37:20;;;;;;;9.27;6.90;;;;;;;;;;5073461;28;20211;-39
2023/07/29 04:39:48;;;;;;;8.52;6.72;;;;;;;;;;5073272;28;20204;-39
2023/07/29 04:42:15;;;;;;;11.27;7.00;;;;;;;;;;5055747;28;20234;-39
2023/07/29 04:44:43;;;;;;;10.07;7.05;;;;;;;;;;5069015;28;20191;-39
2023/07/29 04:47:10;;;;;;;9.00;7.00;;;;;;;;;;5061804;28;20683;-39
2023/07/29 04:49:37;;;;;;;10.70;7.70;;;;;;;;;;5053014;28;20226;-40
2023/07/29 04:52:05;;;;;;;11.35;7.13;;;;;;;;;;5052986;28;20203;-39
2023/07/29 04:54:32;;;;;;;13.70;8.07;;;;;;;;;;5052107;28;20204;-40
2023/07/29 04:56:59;;;;;;;9.68;6.50;;;;;;;;;;5061957;28;20238;-39
2023/07/29 04:59:27;;;;;;;8.82;6.47;;;;;;;;;;5066617;28;20576;-41
2023/07/29 05:01:54;;;;;;;8.32;6.43;;;;;;;;;;5069527;28;20205;-41
2023/07/29 05:04:21;;;;;;;7.53;6.45;;;;;;;;;;5069955;28;20210;-40
2023/07/29 05:06:48;;;;;;;7.30;6.05;;;;;;;;;;5070211;28;20199;-40
2023/07/29 05:09:17;;;;;;;9.23;6.15;;;;;;;;;;5063780;28;20204;-40
2023/07/29 05:11:48;;;;;;;7.10;5.43;;;;;;;;;;5075978;28;20230;-39
2023/07/29 05:14:17;;;;;;;6.00;5.30;;;;;;;;;;5074393;28;20707;-39
2023/07/29 05:16:44;;;;;;;6.47;5.32;;;;;;;;;;5074562;28;20576;-42
2023/07/29 05:19:11;;;;;;;7.40;4.95;;;;;;;;;;5073585;28;20237;-41
2023/07/29 05:21:39;;;;;;;6.13;5.15;;;;;;;;;;5075829;28;20302;-40
2023/07/29 05:24:06;;;;;;;6.20;5.10;;;;;;;;;;5074441;28;20227;-40
2023/07/29 05:26:34;;;;;;;9.02;5.80;;;;;;;;;;5074088;28;20605;-39
2023/07/29 05:29:03;;;;;;;10.20;6.53;;;;;;;;;;5074671;28;20574;-39
2023/07/29 05:31:31;;;;;;;6.97;5.18;;;;;;;;;;5075420;28;20234;-41
2023/07/29 05:33:59;;;;;;;11.50;5.20;;;;;;;;;;5074048;28;20577;-40
2023/07/29 05:36:26;;;;;;;6.03;5.00;;;;;;;;;;5065280;28;20604;-40
2023/07/29 05:38:53;;;;;;;6.70;5.70;;;;;;;;;;5074169;28;20227;-39
2023/07/29 05:41:20;;;;;;;6.32;5.30;;;;;;;;;;5074028;28;20227;-40
2023/07/29 05:43:48;;;;;;;6.15;5.22;;;;;;;;;;5074697;28;20288;-39
2023/07/29 05:46:15;;;;;;;13.70;5.60;;;;;;;;;;5073717;28;20226;-41
2023/07/29 05:48:43;;;;;;;7.65;4.93;;;;;;;;;;5075371;28;20227;-39
2023/07/29 05:51:11;;;;;;;5.82;4.93;;;;;;;;;;5055677;28;20227;-40
2023/07/29 05:53:39;;;;;;;10.55;5.78;;;;;;;;;;5072146;28;20223;-40
2023/07/29 05:56:06;;;;;;;6.85;4.88;;;;;;;;;;5074637;28;20264;-41
2023/07/29 05:58:33;;;;;;;7.60;4.85;;;;;;;;;;5073393;28;20595;-40
2023/07/29 06:01:00;;;;;;;6.13;4.70;;;;;;;;;;5074965;28;20268;-40
2023/07/29 06:03:28;;;;;;;6.00;4.93;;;;;;;;;;5073789;28;20219;-39
2023/07/29 06:05:56;;;;;;;5.18;4.55;;;;;;;;;;5073411;28;20221;-39
2023/07/29 06:08:23;;;;;;;5.70;4.72;;;;;;;;;;5073842;28;20219;-39
2023/07/29 06:10:50;;;;;;;8.52;5.45;;;;;;;;;;5074973;28;20227;-39
2023/07/29 06:13:17;;;;;;;5.57;4.60;;;;;;;;;;5073092;28;20223;-39
2023/07/29 06:15:45;;;;;;;7.35;4.57;;;;;;;;;;5073379;28;20277;-40
2023/07/29 06:18:13;;;;;;;6.30;4.50;;;;;;;;;;5073021;28;20235;-40
2023/07/29 06:20:40;;;;;;;5.75;3.90;;;;;;;;;;5071935;28;20227;-40
2023/07/29 06:23:08;;;;;;;5.18;4.50;;;;;;;;;;5071912;28;20227;-40
2023/07/29 06:25:35;;;;;;;6.75;4.15;;;;;;;;;;5055518;28;20223;-40
2023/07/29 06:28:02;;;;;;;5.00;4.05;;;;;;;;;;5074852;28;20683;-40
2023/07/29 06:30:29;;;;;;;8.02;3.55;;;;;;;;;;5073842;28;20314;-45
2023/07/29 06:32:57;;;;;;;4.72;3.80;;;;;;;;;;5072024;28;20223;-48
2023/07/29 06:35:24;;;;;;;4.75;3.20;;;;;;;;;;5072993;28;20265;-42
2023/07/29 06:37:51;;;;;;;4.53;3.65;;;;;;;;;;5074987;28;20238;-43
2023/07/29 06:40:18;;;;;;;8.18;3.00;;;;;;;;;;5073457;28;20548;-43
2023/07/29 06:42:45;;;;;;;4.60;3.20;;;;;;;;;;5071070;28;20206;-43
2023/07/29 06:45:12;;;;;;;4.63;3.42;;;;;;;;;;5073770;28;20220;-43
2023/07/29 06:47:39;;;;;;;3.72;3.25;;;;;;;;;;5066311;28;20215;-43
2023/07/29 06:50:07;;;;;;;4.85;2.90;;;;;;;;;;5069014;28;20245;-43
2023/07/29 06:52:34;;;;;;;3.65;2.75;;;;;;;;;;5073689;28;20230;-43
2023/07/29 06:55:01;;;;;;;4.72;3.60;;;;;;;;;;5073644;28;20215;-44
2023/07/29 06:57:28;;;;;;;4.00;2.83;;;;;;;;;;5073403;28;20223;-42
2023/07/29 06:59:55;;;;;;;3.33;2.25;;;;;;;;;;5072593;28;20270;-42
2023/07/29 07:02:23;;;;;;;3.22;2.40;;;;;;;;;;5069737;28;20663;-43
2023/07/29 07:04:50;;;;;;;2.92;2.42;;;;;;;;;;5071334;28;20712;-44
2023/07/29 07:07:17;;;;;;;8.32;2.80;;;;;;;;;;5074009;28;20530;-44
2023/07/29 07:09:44;;;;;;;3.58;2.67;;;;;;;;;;5073844;28;20238;-43
2023/07/29 07:12:11;;;;;;;5.03;3.05;;;;;;;;;;5071287;28;20253;-44
2023/07/29 07:14:38;;;;;;;3.17;2.70;;;;;;;;;;5072756;28;20195;-43
2023/07/29 07:17:06;;;;;;;3.10;2.50;;;;;;;;;;5073848;28;20262;-44
2023/07/29 07:19:33;;;;;;;2.60;2.40;;;;;;;;;;5071345;28;20208;-43
2023/07/29 07:22:00;;;;;;;2.30;2.10;;;;;;;;;;5074351;28;20668;-43
2023/07/29 07:24:27;;;;;;;3.75;2.17;;;;;;;;;;5069046;28;20192;-44
2023/07/29 07:26:54;;;;;;;2.72;2.05;;;;;;;;;;5069941;28;20203;-43
2023/07/29 07:29:21;;;;;;;3.13;2.35;;;;;;;;;;5072129;28;20211;-44
